Houlton, Wisconsin
Current Conditions -  °F | °C
As of 8:11 AM on Thursday 18 Dec 2014 (Local Time) from K21D Reporting Station
Overcast Overcast  
Wind Chill: 21°   Ceiling: 1100
Heat Index: 21°   Visibility: 10mi
Dew Point: 18°   Wind: 0mph
Humidity: 86%   Direction: NA
Pressure: 30.3"   Gusts: NA
Location:  45.067°N, 92.7557°W
Report Text: K21D 181411Z AUTO 00000KT 10SM OVC011 M06/M08 A3030 RMK AO2
Loading
Personal Weather Stations






























Interactive Weather Map New forecast layout! Learn more

10-Day Weather Forecast

Advertisements
Track Severe Weather on mobile